sensor_id;sensor_type;location;lat;lon;timestamp;P1;durP1;ratioP1;P2;durP2;ratioP2
16320;SDS011;8269;50.990;4.494;2022-11-14T00:00:53;54.43;;;44.83;;
16320;SDS011;8269;50.990;4.494;2022-11-14T00:03:19;48.60;;;43.10;;
16320;SDS011;8269;50.990;4.494;2022-11-14T00:05:45;47.43;;;42.37;;
16320;SDS011;8269;50.990;4.494;2022-11-14T00:08:14;44.67;;;39.93;;
16320;SDS011;8269;50.990;4.494;2022-11-14T00:10:45;43.90;;;39.20;;
16320;SDS011;8269;50.990;4.494;2022-11-14T00:13:12;47.30;;;39.77;;
16320;SDS011;8269;50.990;4.494;2022-11-14T00:15:38;44.70;;;39.83;;
16320;SDS011;8269;50.990;4.494;2022-11-14T00:18:04;46.83;;;41.27;;
16320;SDS011;8269;50.990;4.494;2022-11-14T00:20:30;44.80;;;39.90;;
16320;SDS011;8269;50.990;4.494;2022-11-14T00:22:56;45.90;;;39.20;;
16320;SDS011;8269;50.990;4.494;2022-11-14T00:25:22;45.00;;;39.97;;
16320;SDS011;8269;50.990;4.494;2022-11-14T00:27:47;45.17;;;40.27;;
16320;SDS011;8269;50.990;4.494;2022-11-14T00:30:13;45.07;;;38.87;;
16320;SDS011;8269;50.990;4.494;2022-11-14T00:32:39;45.87;;;39.40;;
16320;SDS011;8269;50.990;4.494;2022-11-14T00:35:05;43.50;;;38.73;;
16320;SDS011;8269;50.990;4.494;2022-11-14T00:37:31;40.60;;;36.13;;
16320;SDS011;8269;50.990;4.494;2022-11-14T00:39:56;45.20;;;37.33;;
16320;SDS011;8269;50.990;4.494;2022-11-14T00:42:22;41.37;;;35.40;;
16320;SDS011;8269;50.990;4.494;2022-11-14T00:44:47;39.97;;;34.23;;
16320;SDS011;8269;50.990;4.494;2022-11-14T00:47:13;37.77;;;33.63;;
16320;SDS011;8269;50.990;4.494;2022-11-14T00:49:38;39.37;;;35.07;;
16320;SDS011;8269;50.990;4.494;2022-11-14T00:52:04;43.27;;;35.87;;
16320;SDS011;8269;50.990;4.494;2022-11-14T00:54:29;43.87;;;37.33;;
16320;SDS011;8269;50.990;4.494;2022-11-14T00:56:55;39.73;;;34.30;;
16320;SDS011;8269;50.990;4.494;2022-11-14T00:59:21;38.63;;;34.43;;
16320;SDS011;8269;50.990;4.494;2022-11-14T01:01:46;39.63;;;35.33;;
16320;SDS011;8269;50.990;4.494;2022-11-14T01:04:12;38.63;;;34.37;;
16320;SDS011;8269;50.990;4.494;2022-11-14T01:06:37;38.63;;;34.43;;
16320;SDS011;8269;50.990;4.494;2022-11-14T01:09:03;38.53;;;34.43;;
16320;SDS011;8269;50.990;4.494;2022-11-14T01:11:28;37.40;;;33.40;;
16320;SDS011;8269;50.990;4.494;2022-11-14T01:13:54;37.63;;;33.63;;
16320;SDS011;8269;50.990;4.494;2022-11-14T01:16:20;37.73;;;33.67;;
16320;SDS011;8269;50.990;4.494;2022-11-14T01:18:45;39.40;;;34.37;;
16320;SDS011;8269;50.990;4.494;2022-11-14T01:21:12;38.57;;;34.47;;
16320;SDS011;8269;50.990;4.494;2022-11-14T01:23:37;37.27;;;33.37;;
16320;SDS011;8269;50.990;4.494;2022-11-14T01:26:04;37.53;;;33.67;;
16320;SDS011;8269;50.990;4.494;2022-11-14T01:28:32;37.50;;;33.60;;
16320;SDS011;8269;50.990;4.494;2022-11-14T01:33:43;38.70;;;34.60;;
16320;SDS011;8269;50.990;4.494;2022-11-14T01:36:09;38.23;;;34.13;;
16320;SDS011;8269;50.990;4.494;2022-11-14T01:38:35;37.00;;;33.20;;
16320;SDS011;8269;50.990;4.494;2022-11-14T01:41:01;38.37;;;33.37;;
16320;SDS011;8269;50.990;4.494;2022-11-14T01:48:31;36.67;;;32.80;;
16320;SDS011;8269;50.990;4.494;2022-11-14T01:51:44;35.90;;;32.10;;
16320;SDS011;8269;50.990;4.494;2022-11-14T01:53:50;35.30;;;31.47;;
16320;SDS011;8269;50.990;4.494;2022-11-14T01:56:18;35.70;;;31.93;;
16320;SDS011;8269;50.990;4.494;2022-11-14T01:58:56;34.33;;;30.73;;
16320;SDS011;8269;50.990;4.494;2022-11-14T02:01:26;34.40;;;30.80;;
16320;SDS011;8269;50.990;4.494;2022-11-14T02:03:55;33.83;;;30.13;;
16320;SDS011;8269;50.990;4.494;2022-11-14T02:06:23;34.57;;;30.73;;
16320;SDS011;8269;50.990;4.494;2022-11-14T02:08:51;32.83;;;29.50;;
16320;SDS011;8269;50.990;4.494;2022-11-14T02:11:19;32.20;;;28.70;;
16320;SDS011;8269;50.990;4.494;2022-11-14T02:13:44;34.00;;;30.50;;
16320;SDS011;8269;50.990;4.494;2022-11-14T02:16:10;33.47;;;29.97;;
16320;SDS011;8269;50.990;4.494;2022-11-14T02:18:36;32.83;;;29.37;;
16320;SDS011;8269;50.990;4.494;2022-11-14T02:21:01;34.80;;;31.00;;
16320;SDS011;8269;50.990;4.494;2022-11-14T02:23:27;33.20;;;29.57;;
16320;SDS011;8269;50.990;4.494;2022-11-14T02:25:54;34.67;;;30.10;;
16320;SDS011;8269;50.990;4.494;2022-11-14T02:28:20;34.03;;;28.90;;
16320;SDS011;8269;50.990;4.494;2022-11-14T02:30:46;35.37;;;30.70;;
16320;SDS011;8269;50.990;4.494;2022-11-14T02:33:12;33.13;;;29.33;;
16320;SDS011;8269;50.990;4.494;2022-11-14T02:35:38;37.50;;;31.97;;
16320;SDS011;8269;50.990;4.494;2022-11-14T02:38:04;37.73;;;31.57;;
16320;SDS011;8269;50.990;4.494;2022-11-14T02:40:30;35.40;;;30.80;;
16320;SDS011;8269;50.990;4.494;2022-11-14T02:42:55;33.23;;;29.77;;
16320;SDS011;8269;50.990;4.494;2022-11-14T02:45:21;32.03;;;28.63;;
16320;SDS011;8269;50.990;4.494;2022-11-14T02:47:47;31.37;;;28.03;;
16320;SDS011;8269;50.990;4.494;2022-11-14T02:50:12;31.67;;;28.00;;
16320;SDS011;8269;50.990;4.494;2022-11-14T02:52:38;32.77;;;28.30;;
16320;SDS011;8269;50.990;4.494;2022-11-14T02:55:04;31.80;;;28.33;;
16320;SDS011;8269;50.990;4.494;2022-11-14T02:57:30;32.43;;;29.07;;
16320;SDS011;8269;50.990;4.494;2022-11-14T02:59:55;30.73;;;27.43;;
16320;SDS011;8269;50.990;4.494;2022-11-14T03:02:21;31.77;;;28.07;;
16320;SDS011;8269;50.990;4.494;2022-11-14T03:04:47;31.60;;;27.97;;
16320;SDS011;8269;50.990;4.494;2022-11-14T03:07:12;32.53;;;28.63;;
16320;SDS011;8269;50.990;4.494;2022-11-14T03:09:38;32.27;;;28.87;;
16320;SDS011;8269;50.990;4.494;2022-11-14T03:12:03;31.47;;;27.77;;
16320;SDS011;8269;50.990;4.494;2022-11-14T03:14:29;37.67;;;30.37;;
16320;SDS011;8269;50.990;4.494;2022-11-14T03:16:55;32.97;;;29.37;;
16320;SDS011;8269;50.990;4.494;2022-11-14T03:19:21;35.63;;;29.60;;
16320;SDS011;8269;50.990;4.494;2022-11-14T03:21:47;33.63;;;27.30;;
16320;SDS011;8269;50.990;4.494;2022-11-14T03:24:12;34.37;;;29.70;;
16320;SDS011;8269;50.990;4.494;2022-11-14T03:26:38;31.60;;;27.37;;
16320;SDS011;8269;50.990;4.494;2022-11-14T03:29:03;31.33;;;27.90;;
16320;SDS011;8269;50.990;4.494;2022-11-14T03:31:29;32.50;;;28.17;;
16320;SDS011;8269;50.990;4.494;2022-11-14T03:33:55;31.67;;;27.97;;
16320;SDS011;8269;50.990;4.494;2022-11-14T03:36:20;32.23;;;28.93;;
16320;SDS011;8269;50.990;4.494;2022-11-14T03:38:46;32.33;;;28.47;;
16320;SDS011;8269;50.990;4.494;2022-11-14T03:41:12;32.50;;;28.07;;
16320;SDS011;8269;50.990;4.494;2022-11-14T03:43:37;32.70;;;29.10;;
16320;SDS011;8269;50.990;4.494;2022-11-14T03:46:03;32.53;;;29.07;;
16320;SDS011;8269;50.990;4.494;2022-11-14T03:48:29;32.87;;;28.50;;
16320;SDS011;8269;50.990;4.494;2022-11-14T03:50:55;32.00;;;28.43;;
16320;SDS011;8269;50.990;4.494;2022-11-14T03:53:21;37.93;;;32.27;;
16320;SDS011;8269;50.990;4.494;2022-11-14T03:55:47;38.33;;;33.93;;
16320;SDS011;8269;50.990;4.494;2022-11-14T03:58:13;37.67;;;33.67;;
16320;SDS011;8269;50.990;4.494;2022-11-14T04:00:38;37.90;;;33.97;;
16320;SDS011;8269;50.990;4.494;2022-11-14T04:03:04;38.47;;;33.50;;
16320;SDS011;8269;50.990;4.494;2022-11-14T04:05:29;38.60;;;34.53;;
16320;SDS011;8269;50.990;4.494;2022-11-14T04:07:55;36.07;;;32.37;;
16320;SDS011;8269;50.990;4.494;2022-11-14T04:10:21;34.30;;;30.60;;
16320;SDS011;8269;50.990;4.494;2022-11-14T04:12:47;36.47;;;32.77;;
16320;SDS011;8269;50.990;4.494;2022-11-14T04:15:13;34.93;;;31.13;;
16320;SDS011;8269;50.990;4.494;2022-11-14T04:17:39;34.50;;;30.73;;
16320;SDS011;8269;50.990;4.494;2022-11-14T04:20:05;34.47;;;30.70;;
16320;SDS011;8269;50.990;4.494;2022-11-14T04:22:31;34.50;;;30.80;;
16320;SDS011;8269;50.990;4.494;2022-11-14T04:24:56;33.80;;;29.23;;
16320;SDS011;8269;50.990;4.494;2022-11-14T04:27:22;33.50;;;28.97;;
16320;SDS011;8269;50.990;4.494;2022-11-14T04:29:47;32.03;;;28.40;;
16320;SDS011;8269;50.990;4.494;2022-11-14T04:32:13;31.47;;;27.63;;
16320;SDS011;8269;50.990;4.494;2022-11-14T04:34:38;34.53;;;30.00;;
16320;SDS011;8269;50.990;4.494;2022-11-14T04:37:04;33.83;;;29.00;;
16320;SDS011;8269;50.990;4.494;2022-11-14T04:39:29;33.13;;;29.10;;
16320;SDS011;8269;50.990;4.494;2022-11-14T04:41:55;34.97;;;29.90;;
16320;SDS011;8269;50.990;4.494;2022-11-14T04:44:21;34.07;;;29.43;;
16320;SDS011;8269;50.990;4.494;2022-11-14T04:46:46;33.10;;;27.53;;
16320;SDS011;8269;50.990;4.494;2022-11-14T04:49:12;31.07;;;26.97;;
16320;SDS011;8269;50.990;4.494;2022-11-14T04:51:37;34.47;;;27.40;;
16320;SDS011;8269;50.990;4.494;2022-11-14T04:54:03;36.30;;;28.93;;
16320;SDS011;8269;50.990;4.494;2022-11-14T04:56:29;33.57;;;29.90;;
16320;SDS011;8269;50.990;4.494;2022-11-14T04:58:54;30.93;;;27.33;;
16320;SDS011;8269;50.990;4.494;2022-11-14T05:01:20;33.80;;;30.10;;
16320;SDS011;8269;50.990;4.494;2022-11-14T05:03:45;33.20;;;29.70;;
16320;SDS011;8269;50.990;4.494;2022-11-14T05:06:11;36.07;;;29.87;;
16320;SDS011;8269;50.990;4.494;2022-11-14T05:08:37;33.00;;;29.23;;
16320;SDS011;8269;50.990;4.494;2022-11-14T05:11:02;42.73;;;34.90;;
16320;SDS011;8269;50.990;4.494;2022-11-14T05:13:28;35.63;;;31.80;;
16320;SDS011;8269;50.990;4.494;2022-11-14T05:15:57;35.83;;;32.00;;
16320;SDS011;8269;50.990;4.494;2022-11-14T05:18:23;36.17;;;30.07;;
16320;SDS011;8269;50.990;4.494;2022-11-14T05:20:49;37.07;;;30.57;;
16320;SDS011;8269;50.990;4.494;2022-11-14T05:23:18;33.93;;;30.27;;
16320;SDS011;8269;50.990;4.494;2022-11-14T05:25:46;33.17;;;29.57;;
16320;SDS011;8269;50.990;4.494;2022-11-14T05:28:12;41.67;;;34.47;;
16320;SDS011;8269;50.990;4.494;2022-11-14T05:30:37;40.07;;;34.17;;
16320;SDS011;8269;50.990;4.494;2022-11-14T05:33:03;37.50;;;33.20;;
16320;SDS011;8269;50.990;4.494;2022-11-14T05:35:29;37.50;;;30.57;;
16320;SDS011;8269;50.990;4.494;2022-11-14T05:37:54;34.93;;;30.97;;
16320;SDS011;8269;50.990;4.494;2022-11-14T05:40:20;32.20;;;28.70;;
16320;SDS011;8269;50.990;4.494;2022-11-14T05:42:45;35.57;;;30.77;;
16320;SDS011;8269;50.990;4.494;2022-11-14T05:45:11;31.83;;;28.43;;
16320;SDS011;8269;50.990;4.494;2022-11-14T05:47:36;33.93;;;29.77;;
16320;SDS011;8269;50.990;4.494;2022-11-14T05:50:02;32.60;;;28.37;;
16320;SDS011;8269;50.990;4.494;2022-11-14T05:52:29;34.03;;;29.37;;
16320;SDS011;8269;50.990;4.494;2022-11-14T05:54:55;33.43;;;29.70;;
16320;SDS011;8269;50.990;4.494;2022-11-14T05:57:20;30.53;;;27.27;;
16320;SDS011;8269;50.990;4.494;2022-11-14T05:59:46;32.57;;;27.53;;
16320;SDS011;8269;50.990;4.494;2022-11-14T06:02:11;34.07;;;29.17;;
16320;SDS011;8269;50.990;4.494;2022-11-14T06:04:37;33.47;;;28.13;;
16320;SDS011;8269;50.990;4.494;2022-11-14T06:07:03;32.53;;;27.63;;
16320;SDS011;8269;50.990;4.494;2022-11-14T06:09:28;36.43;;;30.87;;
16320;SDS011;8269;50.990;4.494;2022-11-14T06:11:54;35.90;;;28.73;;
16320;SDS011;8269;50.990;4.494;2022-11-14T06:14:19;36.30;;;29.43;;
16320;SDS011;8269;50.990;4.494;2022-11-14T06:16:45;39.87;;;32.67;;
16320;SDS011;8269;50.990;4.494;2022-11-14T06:19:11;39.97;;;31.97;;
16320;SDS011;8269;50.990;4.494;2022-11-14T06:21:36;36.90;;;31.13;;
16320;SDS011;8269;50.990;4.494;2022-11-14T06:24:02;35.43;;;30.27;;
16320;SDS011;8269;50.990;4.494;2022-11-14T06:26:28;36.17;;;30.87;;
16320;SDS011;8269;50.990;4.494;2022-11-14T06:28:55;34.80;;;29.07;;
16320;SDS011;8269;50.990;4.494;2022-11-14T06:31:22;33.10;;;28.57;;
16320;SDS011;8269;50.990;4.494;2022-11-14T06:33:48;33.87;;;30.23;;
16320;SDS011;8269;50.990;4.494;2022-11-14T06:36:14;33.83;;;28.53;;
16320;SDS011;8269;50.990;4.494;2022-11-14T06:38:40;34.00;;;28.80;;
16320;SDS011;8269;50.990;4.494;2022-11-14T06:41:13;35.73;;;30.07;;
16320;SDS011;8269;50.990;4.494;2022-11-14T06:43:44;36.50;;;30.03;;
16320;SDS011;8269;50.990;4.494;2022-11-14T06:46:12;31.67;;;26.77;;
16320;SDS011;8269;50.990;4.494;2022-11-14T06:48:40;33.90;;;28.07;;
16320;SDS011;8269;50.990;4.494;2022-11-14T06:51:06;31.43;;;26.13;;
16320;SDS011;8269;50.990;4.494;2022-11-14T06:53:33;34.00;;;28.30;;
16320;SDS011;8269;50.990;4.494;2022-11-14T06:56:03;33.10;;;27.27;;
16320;SDS011;8269;50.990;4.494;2022-11-14T06:58:32;32.07;;;27.47;;
16320;SDS011;8269;50.990;4.494;2022-11-14T07:03:54;34.00;;;27.10;;
16320;SDS011;8269;50.990;4.494;2022-11-14T07:06:23;35.27;;;27.40;;
16320;SDS011;8269;50.990;4.494;2022-11-14T07:08:50;30.70;;;26.83;;
16320;SDS011;8269;50.990;4.494;2022-11-14T07:11:18;32.10;;;26.67;;
16320;SDS011;8269;50.990;4.494;2022-11-14T07:16:26;35.23;;;27.37;;
16320;SDS011;8269;50.990;4.494;2022-11-14T07:18:57;31.20;;;25.90;;
16320;SDS011;8269;50.990;4.494;2022-11-14T07:21:27;31.20;;;26.20;;
16320;SDS011;8269;50.990;4.494;2022-11-14T07:23:54;35.10;;;28.03;;
16320;SDS011;8269;50.990;4.494;2022-11-14T07:26:20;35.10;;;27.47;;
16320;SDS011;8269;50.990;4.494;2022-11-14T07:28:46;32.73;;;27.87;;
16320;SDS011;8269;50.990;4.494;2022-11-14T07:31:13;31.63;;;27.30;;
16320;SDS011;8269;50.990;4.494;2022-11-14T07:33:40;32.90;;;27.13;;
16320;SDS011;8269;50.990;4.494;2022-11-14T07:36:07;32.77;;;27.70;;
16320;SDS011;8269;50.990;4.494;2022-11-14T07:38:33;33.63;;;29.33;;
16320;SDS011;8269;50.990;4.494;2022-11-14T07:41:04;36.77;;;30.57;;
16320;SDS011;8269;50.990;4.494;2022-11-14T07:43:36;42.10;;;33.97;;
16320;SDS011;8269;50.990;4.494;2022-11-14T07:46:03;36.43;;;29.00;;
16320;SDS011;8269;50.990;4.494;2022-11-14T07:48:34;31.93;;;28.47;;
16320;SDS011;8269;50.990;4.494;2022-11-14T07:51:00;30.07;;;24.67;;
16320;SDS011;8269;50.990;4.494;2022-11-14T07:53:27;29.90;;;24.50;;
16320;SDS011;8269;50.990;4.494;2022-11-14T07:55:53;33.83;;;24.70;;
16320;SDS011;8269;50.990;4.494;2022-11-14T07:58:19;29.13;;;22.83;;
16320;SDS011;8269;50.990;4.494;2022-11-14T08:00:45;29.03;;;25.70;;
16320;SDS011;8269;50.990;4.494;2022-11-14T08:03:11;31.67;;;26.67;;
16320;SDS011;8269;50.990;4.494;2022-11-14T08:05:36;29.73;;;24.70;;
16320;SDS011;8269;50.990;4.494;2022-11-14T08:08:02;28.53;;;22.80;;
16320;SDS011;8269;50.990;4.494;2022-11-14T08:10:28;25.40;;;21.57;;
16320;SDS011;8269;50.990;4.494;2022-11-14T08:12:57;27.73;;;21.70;;
16320;SDS011;8269;50.990;4.494;2022-11-14T08:15:24;24.73;;;22.20;;
16320;SDS011;8269;50.990;4.494;2022-11-14T08:17:50;24.77;;;22.17;;
16320;SDS011;8269;50.990;4.494;2022-11-14T08:20:16;24.90;;;22.07;;
16320;SDS011;8269;50.990;4.494;2022-11-14T08:22:41;26.03;;;22.73;;
16320;SDS011;8269;50.990;4.494;2022-11-14T08:25:07;26.67;;;23.47;;
16320;SDS011;8269;50.990;4.494;2022-11-14T08:27:33;30.90;;;23.93;;
16320;SDS011;8269;50.990;4.494;2022-11-14T08:29:58;32.53;;;24.97;;
16320;SDS011;8269;50.990;4.494;2022-11-14T08:32:24;29.17;;;26.17;;
16320;SDS011;8269;50.990;4.494;2022-11-14T08:34:50;33.07;;;26.53;;
16320;SDS011;8269;50.990;4.494;2022-11-14T08:37:15;31.67;;;26.63;;
16320;SDS011;8269;50.990;4.494;2022-11-14T08:39:41;36.20;;;28.03;;
16320;SDS011;8269;50.990;4.494;2022-11-14T08:42:06;36.13;;;27.50;;
16320;SDS011;8269;50.990;4.494;2022-11-14T08:44:32;31.43;;;28.07;;
16320;SDS011;8269;50.990;4.494;2022-11-14T08:46:58;32.83;;;28.03;;
16320;SDS011;8269;50.990;4.494;2022-11-14T08:49:24;31.73;;;27.13;;
16320;SDS011;8269;50.990;4.494;2022-11-14T08:51:51;31.10;;;27.83;;
16320;SDS011;8269;50.990;4.494;2022-11-14T08:54:17;32.63;;;28.40;;
16320;SDS011;8269;50.990;4.494;2022-11-14T08:56:43;30.87;;;26.40;;
16320;SDS011;8269;50.990;4.494;2022-11-14T08:59:09;30.80;;;25.67;;
16320;SDS011;8269;50.990;4.494;2022-11-14T09:01:35;29.07;;;23.03;;
16320;SDS011;8269;50.990;4.494;2022-11-14T09:04:00;23.50;;;19.97;;
16320;SDS011;8269;50.990;4.494;2022-11-14T09:06:26;24.90;;;20.60;;
16320;SDS011;8269;50.990;4.494;2022-11-14T09:08:52;25.20;;;19.77;;
16320;SDS011;8269;50.990;4.494;2022-11-14T09:11:17;22.23;;;19.23;;
16320;SDS011;8269;50.990;4.494;2022-11-14T09:13:43;23.43;;;19.87;;
16320;SDS011;8269;50.990;4.494;2022-11-14T09:16:09;24.73;;;19.03;;
16320;SDS011;8269;50.990;4.494;2022-11-14T09:18:34;20.93;;;17.67;;
16320;SDS011;8269;50.990;4.494;2022-11-14T09:21:01;22.63;;;18.23;;
16320;SDS011;8269;50.990;4.494;2022-11-14T09:23:30;24.47;;;17.10;;
16320;SDS011;8269;50.990;4.494;2022-11-14T09:25:57;24.20;;;18.57;;
16320;SDS011;8269;50.990;4.494;2022-11-14T09:28:23;24.57;;;19.03;;
16320;SDS011;8269;50.990;4.494;2022-11-14T09:30:49;24.43;;;19.13;;
16320;SDS011;8269;50.990;4.494;2022-11-14T09:33:14;24.23;;;18.17;;
16320;SDS011;8269;50.990;4.494;2022-11-14T09:35:40;21.57;;;17.60;;
16320;SDS011;8269;50.990;4.494;2022-11-14T09:38:07;24.17;;;18.53;;
16320;SDS011;8269;50.990;4.494;2022-11-14T09:45:55;25.03;;;19.13;;
16320;SDS011;8269;50.990;4.494;2022-11-14T09:48:22;26.33;;;18.73;;
16320;SDS011;8269;50.990;4.494;2022-11-14T09:51:05;22.53;;;17.47;;
16320;SDS011;8269;50.990;4.494;2022-11-14T09:53:36;19.87;;;16.10;;
16320;SDS011;8269;50.990;4.494;2022-11-14T09:56:11;24.13;;;17.50;;
16320;SDS011;8269;50.990;4.494;2022-11-14T09:58:39;24.87;;;16.80;;
16320;SDS011;8269;50.990;4.494;2022-11-14T10:03:57;17.87;;;15.77;;
16320;SDS011;8269;50.990;4.494;2022-11-14T10:06:45;19.00;;;16.30;;
16320;SDS011;8269;50.990;4.494;2022-11-14T10:09:37;19.97;;;16.13;;
16320;SDS011;8269;50.990;4.494;2022-11-14T10:15:14;22.20;;;15.93;;
16320;SDS011;8269;50.990;4.494;2022-11-14T10:28:49;18.73;;;13.67;;
16320;SDS011;8269;50.990;4.494;2022-11-14T10:41:41;18.53;;;14.03;;
16320;SDS011;8269;50.990;4.494;2022-11-14T10:44:12;20.77;;;15.00;;
16320;SDS011;8269;50.990;4.494;2022-11-14T10:46:46;18.30;;;15.10;;
16320;SDS011;8269;50.990;4.494;2022-11-14T10:49:17;19.30;;;14.40;;
16320;SDS011;8269;50.990;4.494;2022-11-14T10:51:45;18.93;;;14.07;;
16320;SDS011;8269;50.990;4.494;2022-11-14T10:57:00;17.27;;;13.67;;
16320;SDS011;8269;50.990;4.494;2022-11-14T10:59:26;17.20;;;14.43;;
16320;SDS011;8269;50.990;4.494;2022-11-14T11:01:53;17.20;;;14.60;;
16320;SDS011;8269;50.990;4.494;2022-11-14T11:04:27;17.50;;;13.60;;
16320;SDS011;8269;50.990;4.494;2022-11-14T11:09:35;17.13;;;13.80;;
16320;SDS011;8269;50.990;4.494;2022-11-14T11:12:22;17.97;;;13.90;;
16320;SDS011;8269;50.990;4.494;2022-11-14T11:14:50;19.20;;;15.23;;
16320;SDS011;8269;50.990;4.494;2022-11-14T11:17:45;20.97;;;15.53;;
16320;SDS011;8269;50.990;4.494;2022-11-14T11:23:05;16.67;;;14.27;;
16320;SDS011;8269;50.990;4.494;2022-11-14T11:25:34;19.50;;;14.87;;
16320;SDS011;8269;50.990;4.494;2022-11-14T11:28:18;17.60;;;15.33;;
16320;SDS011;8269;50.990;4.494;2022-11-14T11:30:58;17.93;;;15.10;;
16320;SDS011;8269;50.990;4.494;2022-11-14T11:35:53;20.40;;;15.37;;
16320;SDS011;8269;50.990;4.494;2022-11-14T11:38:22;18.10;;;14.73;;
16320;SDS011;8269;50.990;4.494;2022-11-14T11:40:51;17.53;;;15.10;;
16320;SDS011;8269;50.990;4.494;2022-11-14T11:43:39;21.57;;;15.87;;
16320;SDS011;8269;50.990;4.494;2022-11-14T11:51:42;17.30;;;14.60;;
16320;SDS011;8269;50.990;4.494;2022-11-14T11:54:29;19.43;;;15.70;;
16320;SDS011;8269;50.990;4.494;2022-11-14T11:57:11;22.17;;;16.53;;
16320;SDS011;8269;50.990;4.494;2022-11-14T12:02:25;17.10;;;14.80;;
16320;SDS011;8269;50.990;4.494;2022-11-14T12:04:52;19.50;;;15.63;;
16320;SDS011;8269;50.990;4.494;2022-11-14T12:07:21;21.33;;;16.10;;
16320;SDS011;8269;50.990;4.494;2022-11-14T12:09:57;18.27;;;14.97;;
16320;SDS011;8269;50.990;4.494;2022-11-14T12:15:26;18.47;;;14.93;;
16320;SDS011;8269;50.990;4.494;2022-11-14T12:26:22;20.53;;;15.50;;
16320;SDS011;8269;50.990;4.494;2022-11-14T12:31:58;21.85;;;19.70;;
16320;SDS011;8269;50.990;4.494;2022-11-14T12:34:38;21.23;;;17.60;;
16320;SDS011;8269;50.990;4.494;2022-11-14T12:37:10;21.10;;;17.53;;
16320;SDS011;8269;50.990;4.494;2022-11-14T12:39:42;20.80;;;17.63;;
16320;SDS011;8269;50.990;4.494;2022-11-14T12:42:23;19.77;;;16.80;;
16320;SDS011;8269;50.990;4.494;2022-11-14T12:44:50;22.57;;;19.63;;
16320;SDS011;8269;50.990;4.494;2022-11-14T12:47:17;22.00;;;19.63;;
16320;SDS011;8269;50.990;4.494;2022-11-14T12:58:03;25.80;;;19.27;;
16320;SDS011;8269;50.990;4.494;2022-11-14T13:00:37;24.90;;;19.77;;
16320;SDS011;8269;50.990;4.494;2022-11-14T13:05:58;25.80;;;20.60;;
16320;SDS011;8269;50.990;4.494;2022-11-14T13:14:15;25.83;;;20.97;;
16320;SDS011;8269;50.990;4.494;2022-11-14T13:19:56;29.43;;;22.33;;
16320;SDS011;8269;50.990;4.494;2022-11-14T13:22:43;28.40;;;22.90;;
16320;SDS011;8269;50.990;4.494;2022-11-14T13:27:36;28.37;;;23.83;;
16320;SDS011;8269;50.990;4.494;2022-11-14T13:30:03;30.03;;;24.37;;
16320;SDS011;8269;50.990;4.494;2022-11-14T13:35:29;32.07;;;25.20;;
16320;SDS011;8269;50.990;4.494;2022-11-14T13:52:12;31.10;;;24.40;;
16320;SDS011;8269;50.990;4.494;2022-11-14T13:54:46;29.63;;;25.47;;
16320;SDS011;8269;50.990;4.494;2022-11-14T14:14:36;41.43;;;33.13;;
16320;SDS011;8269;50.990;4.494;2022-11-14T14:17:19;47.17;;;38.00;;
16320;SDS011;8269;50.990;4.494;2022-11-14T14:30:18;50.13;;;41.43;;
16320;SDS011;8269;50.990;4.494;2022-11-14T14:35:32;39.70;;;32.43;;
16320;SDS011;8269;50.990;4.494;2022-11-14T14:38:00;37.93;;;31.90;;
16320;SDS011;8269;50.990;4.494;2022-11-14T14:42:55;39.17;;;32.20;;
16320;SDS011;8269;50.990;4.494;2022-11-14T14:45:24;40.17;;;31.10;;
16320;SDS011;8269;50.990;4.494;2022-11-14T14:48:00;41.93;;;33.50;;
16320;SDS011;8269;50.990;4.494;2022-11-14T14:55:54;35.17;;;29.43;;
16320;SDS011;8269;50.990;4.494;2022-11-14T15:01:08;32.90;;;28.47;;
16320;SDS011;8269;50.990;4.494;2022-11-14T15:03:39;35.03;;;29.90;;
16320;SDS011;8269;50.990;4.494;2022-11-14T15:08:54;34.50;;;27.73;;
16320;SDS011;8269;50.990;4.494;2022-11-14T15:11:33;35.63;;;29.17;;
16320;SDS011;8269;50.990;4.494;2022-11-14T15:13:59;34.13;;;28.60;;
16320;SDS011;8269;50.990;4.494;2022-11-14T15:16:26;33.90;;;27.80;;
16320;SDS011;8269;50.990;4.494;2022-11-14T15:18:54;35.73;;;28.23;;
16320;SDS011;8269;50.990;4.494;2022-11-14T15:21:22;36.47;;;27.67;;
16320;SDS011;8269;50.990;4.494;2022-11-14T15:24:00;35.30;;;29.13;;
16320;SDS011;8269;50.990;4.494;2022-11-14T15:26:27;36.00;;;29.47;;
16320;SDS011;8269;50.990;4.494;2022-11-14T15:31:45;36.73;;;29.60;;
16320;SDS011;8269;50.990;4.494;2022-11-14T15:37:19;35.83;;;29.17;;
16320;SDS011;8269;50.990;4.494;2022-11-14T15:39:46;42.00;;;32.93;;
16320;SDS011;8269;50.990;4.494;2022-11-14T15:44:41;36.37;;;30.73;;
16320;SDS011;8269;50.990;4.494;2022-11-14T15:47:55;42.03;;;32.63;;
16320;SDS011;8269;50.990;4.494;2022-11-14T15:52:38;41.97;;;33.90;;
16320;SDS011;8269;50.990;4.494;2022-11-14T15:55:14;46.70;;;34.80;;
16320;SDS011;8269;50.990;4.494;2022-11-14T15:57:41;41.97;;;33.30;;
16320;SDS011;8269;50.990;4.494;2022-11-14T16:00:10;38.43;;;30.73;;
16320;SDS011;8269;50.990;4.494;2022-11-14T16:02:40;39.83;;;30.63;;
16320;SDS011;8269;50.990;4.494;2022-11-14T16:05:11;41.57;;;31.70;;
16320;SDS011;8269;50.990;4.494;2022-11-14T16:07:38;40.53;;;32.13;;
16320;SDS011;8269;50.990;4.494;2022-11-14T16:10:23;41.43;;;34.10;;
16320;SDS011;8269;50.990;4.494;2022-11-14T16:12:50;42.50;;;34.07;;
16320;SDS011;8269;50.990;4.494;2022-11-14T16:15:16;42.17;;;31.83;;
16320;SDS011;8269;50.990;4.494;2022-11-14T16:17:43;36.83;;;30.40;;
16320;SDS011;8269;50.990;4.494;2022-11-14T16:22:47;41.60;;;32.07;;
16320;SDS011;8269;50.990;4.494;2022-11-14T16:25:14;38.50;;;30.87;;
16320;SDS011;8269;50.990;4.494;2022-11-14T16:27:42;37.03;;;30.57;;
16320;SDS011;8269;50.990;4.494;2022-11-14T16:30:12;38.83;;;30.93;;
16320;SDS011;8269;50.990;4.494;2022-11-14T16:32:39;32.27;;;27.87;;
16320;SDS011;8269;50.990;4.494;2022-11-14T16:35:17;33.23;;;28.33;;
16320;SDS011;8269;50.990;4.494;2022-11-14T16:37:47;33.23;;;27.93;;
16320;SDS011;8269;50.990;4.494;2022-11-14T16:40:18;31.43;;;27.63;;
16320;SDS011;8269;50.990;4.494;2022-11-14T16:42:47;30.73;;;26.90;;
16320;SDS011;8269;50.990;4.494;2022-11-14T16:45:13;33.83;;;27.33;;
16320;SDS011;8269;50.990;4.494;2022-11-14T16:47:44;31.30;;;26.47;;
16320;SDS011;8269;50.990;4.494;2022-11-14T16:50:10;29.73;;;26.63;;
16320;SDS011;8269;50.990;4.494;2022-11-14T16:52:36;31.00;;;25.60;;
16320;SDS011;8269;50.990;4.494;2022-11-14T16:55:03;32.50;;;29.03;;
16320;SDS011;8269;50.990;4.494;2022-11-14T16:57:30;30.97;;;25.57;;
16320;SDS011;8269;50.990;4.494;2022-11-14T16:59:55;29.93;;;26.43;;
16320;SDS011;8269;50.990;4.494;2022-11-14T17:02:22;29.53;;;23.63;;
16320;SDS011;8269;50.990;4.494;2022-11-14T17:04:48;31.27;;;26.13;;
16320;SDS011;8269;50.990;4.494;2022-11-14T17:07:14;29.43;;;24.93;;
16320;SDS011;8269;50.990;4.494;2022-11-14T17:09:40;28.60;;;25.53;;
16320;SDS011;8269;50.990;4.494;2022-11-14T17:12:06;28.13;;;24.23;;
16320;SDS011;8269;50.990;4.494;2022-11-14T17:14:32;26.77;;;22.63;;
16320;SDS011;8269;50.990;4.494;2022-11-14T17:16:57;27.33;;;24.43;;
16320;SDS011;8269;50.990;4.494;2022-11-14T17:19:23;28.67;;;24.80;;
16320;SDS011;8269;50.990;4.494;2022-11-14T17:21:49;30.40;;;25.80;;
16320;SDS011;8269;50.990;4.494;2022-11-14T17:24:16;27.57;;;24.57;;
16320;SDS011;8269;50.990;4.494;2022-11-14T17:26:42;26.60;;;23.80;;
16320;SDS011;8269;50.990;4.494;2022-11-14T17:29:09;29.93;;;25.13;;
16320;SDS011;8269;50.990;4.494;2022-11-14T17:31:36;27.80;;;24.80;;
16320;SDS011;8269;50.990;4.494;2022-11-14T17:34:03;29.50;;;24.90;;